Huvudsida
METAR-TAF:

METAR-TAF

Flygplatser :

Nancy, Frankrike

latitud: 48-41N, longitud: 006-13E, höjd: 225 m

Aktuellt väderrapport

Denna rapport gjordes för 33 minuter sedan, klockan 14:00 UTC
Vind 14 kt från nord
Temperatur 6°C
Fuktighet 56%
Tryck 1022 hPa
Sikt 10 km eller mer
Spridda moln på en höjd av 4800 ft
Mulet på en höjd av 6000 ft

METAR: LFSN 291400Z AUTO 01014KT 9999 SCT048 OVC060 06/M02 Q1022

Tid: 16:33 (14:33 UTC)


TAF: saknas

Aktuella väderrapporter och prognoser från 4000 flygplatser (METAR- och TAF-rapporter).

De tillgängliga stationerna syns som gula och röda prickar på kartan.

För musen över prickarna för att se namnen på stationerna.

Klicka sedan för att få väderrapporter och prognoser.

För att ändra kartan: Klicka på de gröna knapparna med ett svart kors på för att zooma in; den gröna knappen med ett streck på för att zooma ut; eller på de gröna pilarna för angränsande kartor.


METAR-TAF: